New Philadelphia, OH

6:38 PM EST on January 26, 2015 (GMT -0500)
Akron Fulton International | Change Station
CLOSE
Current Station
Airport
Location: Akron,
Elevation: 1066 ft
Nearby Weather Stations

Elev 1066 ft 41.04 °N, 81.46 °W | Updated 44 minutes ago

Overcast
Overcast
21 °F
Feels Like 11 °F
N
9
Wind Variable Wind from North

Today
High -- | Low -- °F
--% Chance of Precip.
Yesterday
High -- | Low -- °F
Precip. -- in
7:40 AM 5:36 PM
Waxing Crescent, 48% visible
Pressure 29.88 in
Visibility 6.0 miles
Clouds Overcast 1300 ft
Windchill 11 °F
Dew Point 15 °F
Humidity 78%
Rainfall 0.00 in
Snow Depth Not available.
UV 0 out of 12
Pollen .10 out of 12
Air Quality Not available.
Flu Activity Not available.
METAR KAKR 262254Z AUTO 35008KT 6SM HZ OVC013 M06/M09 A2984 RMK AO2 SLP119 T10611094 $

More Conditions Fewer Conditions

Pressure 29.88 in
Visibility 6.0 miles
Clouds Overcast 1300 ft
Windchill 11 °F
Dew Point 15 °F
Humidity 78%
Rainfall 0.00 in
Snow Depth Not available.
UV 0 out of 12
Pollen .10 out of 12
Air Quality Not available.
Flu Activity Not available.
METAR KAKR 262254Z AUTO 35008KT 6SM HZ OVC013 M06/M09 A2984 RMK AO2 SLP119 T10611094 $

More Conditions Fewer Conditions

10-Day Weather Forecast

Almanac

Astronomy

Jan. 26, 2015 Rise Set
Actual Time
Civil Twilight
Nautical Twilight
Astronomical Twilight
Moon
Length of Visible Light
Length of Day
Tomorrow will be .
, % of the Moon is Illuminated

Today's Extremes

State Highs State Lows

Community

WunderPhotos

Upload Photos

1,790,394 photos uploaded!

WunderBlogs® & News

Nearby

Air Quality

  Air Quality AQ Index Pollutant
Not available.

Snow Depth

Station Depth Elevation

Earthquake Activity

City Distance Mag. Time & Date
Minimum magnitude displayed is 2.5.

Coastal Water Temperatures

Place Temperature

Nearby Weather Stations